Terminal Aerodrome Forecast
Issued by NWS Cleveland, OH

Home | Current Version | Previous Version | Graphics & Text | Print | Product List | Glossary On
Versions: 1 2 3 4 5 6 7 8 9 10 11 12 13 14 15 16 17 18 19 20 21 22
944
FTUS41 KCLE 190912 AAB
TAFCLE
TAF AMD
KCLE 190912Z 1909/2012 36010KT 4SM -SN OVC006
      TEMPO 1909/1911 2SM -SN OVC006
     FM191200 35012G22KT P6SM VCSH OVC007
     FM191500 34020G30KT P6SM VCSH OVC012
     FM191900 32020G28KT P6SM BKN035
     FM192100 33015G25KT P6SM SCT045=

USA.gov is the U.S. government's official web portal to all federal, state and local government web resources and services.